LFRD 210400Z AUTO 04005KT 020V080 9999 OVC043 05/00 Q1038 NOSIG

ElémentsDécodage
LFRD Station météo située sur l'aérodrome de DINARD Pleurtuit-Saint-Malo
210400Z émis le 21 du mois à 04h00 UTC
AUTO Bulletin édité par un automate
04005KT vent du 040°, 05 noeuds
020V080 vent de direction variable entre 020° et 080°
9999 visibilité horizontale supérieure à 10 Km
OVC043 couverture nuageuse totale (8/8) à 4300 pieds
05/00 température 05°C, point de rosée 00°C
 soit une humidité relative de 70%
Q1038 la pression au niveau de la mer (QNH) est de 1038 hPa
NOSIG Pas de changement significatif prévu au cours des deux heures suivant l'heure de l'observation